sensor_id;sensor_type;location;lat;lon;timestamp;P1;durP1;ratioP1;P2;durP2;ratioP2
38037;SDS011;23843;51.320;12.340;2023-03-01T05:30:31;12.17;;;7.33;;
38037;SDS011;23843;51.320;12.340;2023-03-01T05:32:57;13.67;;;7.63;;
38037;SDS011;23843;51.320;12.340;2023-03-01T05:35:23;12.47;;;6.47;;
38037;SDS011;23843;51.320;12.340;2023-03-01T05:37:49;12.67;;;6.60;;
38037;SDS011;23843;51.320;12.340;2023-03-01T05:40:15;14.80;;;7.53;;
38037;SDS011;23843;51.320;12.340;2023-03-01T05:42:43;14.53;;;7.73;;
38037;SDS011;23843;51.320;12.340;2023-03-01T05:45:09;13.83;;;7.60;;
38037;SDS011;23843;51.320;12.340;2023-03-01T05:47:37;14.50;;;8.17;;
38037;SDS011;23843;51.320;12.340;2023-03-01T05:50:04;12.03;;;7.00;;
38037;SDS011;23843;51.320;12.340;2023-03-01T05:52:31;10.57;;;6.47;;
38037;SDS011;23843;51.320;12.340;2023-03-01T05:54:57;13.77;;;7.53;;
38037;SDS011;23843;51.320;12.340;2023-03-01T05:57:22;14.53;;;8.23;;
38037;SDS011;23843;51.320;12.340;2023-03-01T05:59:48;12.60;;;7.57;;
38037;SDS011;23843;51.320;12.340;2023-03-01T06:02:14;14.93;;;7.77;;
38037;SDS011;23843;51.320;12.340;2023-03-01T06:04:42;11.83;;;6.87;;
38037;SDS011;23843;51.320;12.340;2023-03-01T06:07:08;13.23;;;6.90;;
38037;SDS011;23843;51.320;12.340;2023-03-01T06:09:34;12.20;;;7.00;;
38037;SDS011;23843;51.320;12.340;2023-03-01T06:12:01;10.37;;;6.13;;
38037;SDS011;23843;51.320;12.340;2023-03-01T06:14:28;15.40;;;8.67;;
38037;SDS011;23843;51.320;12.340;2023-03-01T06:16:58;13.37;;;7.93;;
38037;SDS011;23843;51.320;12.340;2023-03-01T06:19:26;15.47;;;8.70;;
38037;SDS011;23843;51.320;12.340;2023-03-01T06:21:54;18.30;;;9.83;;
38037;SDS011;23843;51.320;12.340;2023-03-01T06:24:20;16.13;;;9.03;;
38037;SDS011;23843;51.320;12.340;2023-03-01T06:26:47;15.87;;;9.17;;
38037;SDS011;23843;51.320;12.340;2023-03-01T06:29:12;14.57;;;8.53;;
38037;SDS011;23843;51.320;12.340;2023-03-01T06:31:39;13.90;;;8.10;;
38037;SDS011;23843;51.320;12.340;2023-03-01T06:34:05;14.97;;;8.10;;
38037;SDS011;23843;51.320;12.340;2023-03-01T06:36:31;17.87;;;9.80;;
38037;SDS011;23843;51.320;12.340;2023-03-01T06:38:59;14.17;;;8.27;;
38037;SDS011;23843;51.320;12.340;2023-03-01T06:41:24;12.33;;;6.93;;
38037;SDS011;23843;51.320;12.340;2023-03-01T06:43:51;14.97;;;8.53;;
38037;SDS011;23843;51.320;12.340;2023-03-01T06:46:18;12.00;;;7.30;;
38037;SDS011;23843;51.320;12.340;2023-03-01T06:48:44;14.00;;;7.63;;
38037;SDS011;23843;51.320;12.340;2023-03-01T06:51:11;13.97;;;7.60;;
38037;SDS011;23843;51.320;12.340;2023-03-01T06:53:38;18.90;;;10.40;;
38037;SDS011;23843;51.320;12.340;2023-03-01T06:56:05;17.27;;;10.20;;
38037;SDS011;23843;51.320;12.340;2023-03-01T06:58:31;17.37;;;10.50;;
38037;SDS011;23843;51.320;12.340;2023-03-01T07:00:57;15.17;;;8.70;;
38037;SDS011;23843;51.320;12.340;2023-03-01T07:03:23;17.87;;;9.70;;
38037;SDS011;23843;51.320;12.340;2023-03-01T07:05:49;14.93;;;9.03;;
38037;SDS011;23843;51.320;12.340;2023-03-01T07:08:19;16.13;;;10.23;;
38037;SDS011;23843;51.320;12.340;2023-03-01T07:10:44;16.53;;;9.90;;
38037;SDS011;23843;51.320;12.340;2023-03-01T07:13:12;14.40;;;8.63;;
38037;SDS011;23843;51.320;12.340;2023-03-01T07:15:39;17.53;;;10.40;;
38037;SDS011;23843;51.320;12.340;2023-03-01T07:18:08;15.87;;;9.33;;
38037;SDS011;23843;51.320;12.340;2023-03-01T07:20:35;21.53;;;11.83;;
38037;SDS011;23843;51.320;12.340;2023-03-01T07:23:01;17.23;;;10.43;;
38037;SDS011;23843;51.320;12.340;2023-03-01T07:25:27;16.73;;;9.97;;
38037;SDS011;23843;51.320;12.340;2023-03-01T07:27:53;17.17;;;10.13;;
38037;SDS011;23843;51.320;12.340;2023-03-01T07:30:21;18.10;;;11.13;;
38037;SDS011;23843;51.320;12.340;2023-03-01T07:32:47;19.33;;;11.10;;
38037;SDS011;23843;51.320;12.340;2023-03-01T07:35:14;16.23;;;10.43;;
38037;SDS011;23843;51.320;12.340;2023-03-01T07:37:39;14.17;;;9.33;;
38037;SDS011;23843;51.320;12.340;2023-03-01T07:40:07;19.20;;;11.07;;
38037;SDS011;23843;51.320;12.340;2023-03-01T07:42:35;17.87;;;11.17;;
38037;SDS011;23843;51.320;12.340;2023-03-01T07:45:01;12.70;;;7.93;;
38037;SDS011;23843;51.320;12.340;2023-03-01T07:47:29;10.23;;;6.80;;
38037;SDS011;23843;51.320;12.340;2023-03-01T07:49:55;13.73;;;8.87;;
38037;SDS011;23843;51.320;12.340;2023-03-01T07:52:20;18.83;;;11.30;;
38037;SDS011;23843;51.320;12.340;2023-03-01T07:54:46;15.57;;;10.00;;
38037;SDS011;23843;51.320;12.340;2023-03-01T07:57:12;15.93;;;9.60;;
38037;SDS011;23843;51.320;12.340;2023-03-01T07:59:37;20.50;;;11.20;;
38037;SDS011;23843;51.320;12.340;2023-03-01T08:02:03;15.77;;;10.50;;
38037;SDS011;23843;51.320;12.340;2023-03-01T08:04:30;13.73;;;10.27;;
38037;SDS011;23843;51.320;12.340;2023-03-01T08:06:57;15.60;;;10.23;;
38037;SDS011;23843;51.320;12.340;2023-03-01T08:09:23;18.67;;;12.80;;
38037;SDS011;23843;51.320;12.340;2023-03-01T08:11:48;23.67;;;13.40;;
38037;SDS011;23843;51.320;12.340;2023-03-01T08:14:15;21.93;;;13.27;;
38037;SDS011;23843;51.320;12.340;2023-03-01T08:16:41;20.43;;;12.90;;
38037;SDS011;23843;51.320;12.340;2023-03-01T08:19:08;19.93;;;12.73;;
38037;SDS011;23843;51.320;12.340;2023-03-01T08:21:37;18.73;;;11.27;;
38037;SDS011;23843;51.320;12.340;2023-03-01T08:24:04;13.63;;;10.33;;
38037;SDS011;23843;51.320;12.340;2023-03-01T08:26:31;19.97;;;13.70;;
38037;SDS011;23843;51.320;12.340;2023-03-01T08:28:59;18.23;;;12.97;;
38037;SDS011;23843;51.320;12.340;2023-03-01T08:31:26;19.53;;;13.43;;
38037;SDS011;23843;51.320;12.340;2023-03-01T08:33:53;16.60;;;12.27;;
38037;SDS011;23843;51.320;12.340;2023-03-01T08:36:21;18.20;;;12.67;;
38037;SDS011;23843;51.320;12.340;2023-03-01T08:38:48;17.27;;;12.70;;
38037;SDS011;23843;51.320;12.340;2023-03-01T08:41:14;12.73;;;9.27;;
38037;SDS011;23843;51.320;12.340;2023-03-01T08:43:41;15.70;;;10.03;;
38037;SDS011;23843;51.320;12.340;2023-03-01T08:46:06;11.87;;;8.30;;
38037;SDS011;23843;51.320;12.340;2023-03-01T08:48:32;25.03;;;10.60;;
38037;SDS011;23843;51.320;12.340;2023-03-01T08:51:06;14.43;;;9.33;;
38037;SDS011;23843;51.320;12.340;2023-03-01T08:53:32;10.83;;;7.50;;
38037;SDS011;23843;51.320;12.340;2023-03-01T08:56:01;21.30;;;14.57;;
38037;SDS011;23843;51.320;12.340;2023-03-01T08:58:28;15.63;;;12.20;;
38037;SDS011;23843;51.320;12.340;2023-03-01T09:00:54;11.67;;;8.80;;
38037;SDS011;23843;51.320;12.340;2023-03-01T09:03:20;9.40;;;7.30;;
38037;SDS011;23843;51.320;12.340;2023-03-01T09:05:45;12.20;;;9.10;;
38037;SDS011;23843;51.320;12.340;2023-03-01T09:08:11;16.97;;;11.70;;
38037;SDS011;23843;51.320;12.340;2023-03-01T09:10:38;17.93;;;13.70;;
38037;SDS011;23843;51.320;12.340;2023-03-01T09:13:06;15.23;;;11.83;;
38037;SDS011;23843;51.320;12.340;2023-03-01T09:15:31;13.93;;;10.37;;
38037;SDS011;23843;51.320;12.340;2023-03-01T09:17:57;12.10;;;8.60;;
38037;SDS011;23843;51.320;12.340;2023-03-01T09:20:23;15.43;;;10.90;;
38037;SDS011;23843;51.320;12.340;2023-03-01T09:22:50;17.70;;;12.67;;
38037;SDS011;23843;51.320;12.340;2023-03-01T09:25:16;17.90;;;13.00;;
38037;SDS011;23843;51.320;12.340;2023-03-01T09:27:41;17.07;;;12.30;;
38037;SDS011;23843;51.320;12.340;2023-03-01T09:30:10;17.97;;;12.73;;
38037;SDS011;23843;51.320;12.340;2023-03-01T09:32:36;15.83;;;11.50;;
38037;SDS011;23843;51.320;12.340;2023-03-01T09:35:03;16.07;;;12.00;;
38037;SDS011;23843;51.320;12.340;2023-03-01T09:37:31;17.63;;;12.80;;
38037;SDS011;23843;51.320;12.340;2023-03-01T09:39:57;18.80;;;13.20;;
38037;SDS011;23843;51.320;12.340;2023-03-01T09:42:23;22.63;;;14.33;;
38037;SDS011;23843;51.320;12.340;2023-03-01T09:44:51;22.10;;;15.07;;
38037;SDS011;23843;51.320;12.340;2023-03-01T09:47:21;21.10;;;14.30;;
38037;SDS011;23843;51.320;12.340;2023-03-01T09:49:53;19.40;;;13.83;;
38037;SDS011;23843;51.320;12.340;2023-03-01T09:52:28;15.60;;;11.13;;
38037;SDS011;23843;51.320;12.340;2023-03-01T09:54:59;22.90;;;15.20;;
38037;SDS011;23843;51.320;12.340;2023-03-01T09:57:26;19.97;;;13.90;;
38037;SDS011;23843;51.320;12.340;2023-03-01T10:00:01;18.30;;;12.23;;
38037;SDS011;23843;51.320;12.340;2023-03-01T10:02:41;18.20;;;11.77;;
38037;SDS011;23843;51.320;12.340;2023-03-01T10:05:13;19.13;;;11.17;;
38037;SDS011;23843;51.320;12.340;2023-03-01T10:07:52;18.57;;;12.27;;
38037;SDS011;23843;51.320;12.340;2023-03-01T10:10:27;18.80;;;12.47;;
38037;SDS011;23843;51.320;12.340;2023-03-01T10:12:59;16.67;;;10.90;;
38037;SDS011;23843;51.320;12.340;2023-03-01T10:15:31;22.70;;;14.43;;
38037;SDS011;23843;51.320;12.340;2023-03-01T10:18:03;18.20;;;11.30;;
38037;SDS011;23843;51.320;12.340;2023-03-01T10:20:39;22.93;;;14.77;;
38037;SDS011;23843;51.320;12.340;2023-03-01T10:23:11;18.30;;;12.27;;
38037;SDS011;23843;51.320;12.340;2023-03-01T10:25:41;18.47;;;11.90;;
38037;SDS011;23843;51.320;12.340;2023-03-01T10:28:17;18.30;;;11.10;;
38037;SDS011;23843;51.320;12.340;2023-03-01T10:30:45;20.33;;;13.53;;
38037;SDS011;23843;51.320;12.340;2023-03-01T10:33:15;20.73;;;13.20;;
38037;SDS011;23843;51.320;12.340;2023-03-01T10:35:46;21.80;;;13.00;;
38037;SDS011;23843;51.320;12.340;2023-03-01T10:38:12;20.60;;;13.67;;
38037;SDS011;23843;51.320;12.340;2023-03-01T10:40:49;21.43;;;13.10;;
38037;SDS011;23843;51.320;12.340;2023-03-01T10:43:18;22.50;;;13.90;;
38037;SDS011;23843;51.320;12.340;2023-03-01T10:45:45;23.43;;;14.10;;
38037;SDS011;23843;51.320;12.340;2023-03-01T10:48:13;22.13;;;13.73;;
38037;SDS011;23843;51.320;12.340;2023-03-01T10:50:42;23.57;;;14.93;;
38037;SDS011;23843;51.320;12.340;2023-03-01T10:53:20;22.00;;;13.03;;
38037;SDS011;23843;51.320;12.340;2023-03-01T10:55:49;18.37;;;12.13;;
38037;SDS011;23843;51.320;12.340;2023-03-01T10:58:23;21.20;;;12.73;;
38037;SDS011;23843;51.320;12.340;2023-03-01T11:00:50;22.43;;;13.03;;
38037;SDS011;23843;51.320;12.340;2023-03-01T11:03:21;21.67;;;13.60;;
38037;SDS011;23843;51.320;12.340;2023-03-01T11:05:52;21.17;;;13.17;;
38037;SDS011;23843;51.320;12.340;2023-03-01T11:08:30;19.50;;;12.50;;
38037;SDS011;23843;51.320;12.340;2023-03-01T11:11:07;20.60;;;12.00;;
38037;SDS011;23843;51.320;12.340;2023-03-01T11:13:50;20.03;;;11.57;;
38037;SDS011;23843;51.320;12.340;2023-03-01T11:16:23;19.67;;;11.70;;
38037;SDS011;23843;51.320;12.340;2023-03-01T11:19:00;19.57;;;12.67;;
38037;SDS011;23843;51.320;12.340;2023-03-01T11:21:39;21.03;;;12.87;;
38037;SDS011;23843;51.320;12.340;2023-03-01T11:24:10;19.20;;;11.87;;
38037;SDS011;23843;51.320;12.340;2023-03-01T11:26:40;18.93;;;11.80;;
38037;SDS011;23843;51.320;12.340;2023-03-01T11:29:12;27.43;;;15.10;;
38037;SDS011;23843;51.320;12.340;2023-03-01T11:31:43;26.67;;;17.07;;
38037;SDS011;23843;51.320;12.340;2023-03-01T11:34:15;29.60;;;17.17;;
38037;SDS011;23843;51.320;12.340;2023-03-01T11:36:46;25.80;;;15.53;;
38037;SDS011;23843;51.320;12.340;2023-03-01T11:39:18;23.90;;;14.63;;
38037;SDS011;23843;51.320;12.340;2023-03-01T11:41:58;24.93;;;15.30;;
38037;SDS011;23843;51.320;12.340;2023-03-01T11:44:30;28.73;;;17.37;;
38037;SDS011;23843;51.320;12.340;2023-03-01T11:50:12;20.47;;;12.93;;
38037;SDS011;23843;51.320;12.340;2023-03-01T11:52:47;19.90;;;13.23;;
38037;SDS011;23843;51.320;12.340;2023-03-01T11:55:25;30.93;;;15.90;;
38037;SDS011;23843;51.320;12.340;2023-03-01T11:58:08;23.60;;;13.20;;
38037;SDS011;23843;51.320;12.340;2023-03-01T12:00:58;21.57;;;12.33;;
38037;SDS011;23843;51.320;12.340;2023-03-01T12:06:37;27.63;;;17.17;;
38037;SDS011;23843;51.320;12.340;2023-03-01T12:09:22;25.80;;;15.83;;
38037;SDS011;23843;51.320;12.340;2023-03-01T12:18:03;22.60;;;14.43;;
38037;SDS011;23843;51.320;12.340;2023-03-01T12:20:48;27.60;;;17.13;;
38037;SDS011;23843;51.320;12.340;2023-03-01T12:23:38;23.07;;;14.03;;
38037;SDS011;23843;51.320;12.340;2023-03-01T12:26:20;23.93;;;14.47;;
38037;SDS011;23843;51.320;12.340;2023-03-01T12:28:58;23.87;;;14.93;;
38037;SDS011;23843;51.320;12.340;2023-03-01T12:31:52;22.43;;;13.33;;
38037;SDS011;23843;51.320;12.340;2023-03-01T12:34:33;18.50;;;12.17;;
38037;SDS011;23843;51.320;12.340;2023-03-01T12:37:12;19.23;;;11.97;;
38037;SDS011;23843;51.320;12.340;2023-03-01T12:39:54;20.00;;;12.43;;
38037;SDS011;23843;51.320;12.340;2023-03-01T12:42:30;21.40;;;12.63;;
38037;SDS011;23843;51.320;12.340;2023-03-01T12:45:16;21.63;;;12.80;;
38037;SDS011;23843;51.320;12.340;2023-03-01T12:47:58;20.17;;;12.10;;
38037;SDS011;23843;51.320;12.340;2023-03-01T12:50:37;18.20;;;11.77;;
38037;SDS011;23843;51.320;12.340;2023-03-01T12:53:07;18.87;;;11.43;;
38037;SDS011;23843;51.320;12.340;2023-03-01T12:55:45;18.40;;;10.93;;
38037;SDS011;23843;51.320;12.340;2023-03-01T12:58:15;16.90;;;10.97;;
38037;SDS011;23843;51.320;12.340;2023-03-01T13:00:51;21.80;;;13.60;;
38037;SDS011;23843;51.320;12.340;2023-03-01T13:03:29;21.40;;;12.90;;
38037;SDS011;23843;51.320;12.340;2023-03-01T13:06:02;20.30;;;11.77;;
38037;SDS011;23843;51.320;12.340;2023-03-01T13:08:36;22.47;;;13.07;;
38037;SDS011;23843;51.320;12.340;2023-03-01T13:11:11;23.57;;;13.97;;
38037;SDS011;23843;51.320;12.340;2023-03-01T13:13:42;17.57;;;11.43;;
38037;SDS011;23843;51.320;12.340;2023-03-01T13:16:19;22.57;;;13.43;;
38037;SDS011;23843;51.320;12.340;2023-03-01T13:18:47;23.20;;;13.87;;
38037;SDS011;23843;51.320;12.340;2023-03-01T13:21:13;22.20;;;13.40;;
38037;SDS011;23843;51.320;12.340;2023-03-01T13:23:55;24.70;;;13.23;;
38037;SDS011;23843;51.320;12.340;2023-03-01T13:26:22;17.83;;;10.50;;
38037;SDS011;23843;51.320;12.340;2023-03-01T13:28:51;18.87;;;11.47;;
38037;SDS011;23843;51.320;12.340;2023-03-01T13:37:26;18.40;;;11.37;;
38037;SDS011;23843;51.320;12.340;2023-03-01T13:39:57;18.97;;;11.70;;
38037;SDS011;23843;51.320;12.340;2023-03-01T13:42:31;18.83;;;12.30;;
38037;SDS011;23843;51.320;12.340;2023-03-01T13:45:12;21.50;;;12.70;;
38037;SDS011;23843;51.320;12.340;2023-03-01T13:47:43;20.60;;;12.93;;
38037;SDS011;23843;51.320;12.340;2023-03-01T13:50:16;18.03;;;10.37;;
38037;SDS011;23843;51.320;12.340;2023-03-01T13:52:44;19.50;;;11.43;;
38037;SDS011;23843;51.320;12.340;2023-03-01T13:55:15;16.27;;;9.77;;
38037;SDS011;23843;51.320;12.340;2023-03-01T13:57:46;15.37;;;10.17;;
38037;SDS011;23843;51.320;12.340;2023-03-01T14:00:27;18.97;;;11.47;;
38037;SDS011;23843;51.320;12.340;2023-03-01T14:03:05;17.47;;;11.80;;
38037;SDS011;23843;51.320;12.340;2023-03-01T14:05:34;15.23;;;9.43;;
38037;SDS011;23843;51.320;12.340;2023-03-01T14:08:02;18.83;;;11.27;;
38037;SDS011;23843;51.320;12.340;2023-03-01T14:10:29;17.10;;;9.37;;
38037;SDS011;23843;51.320;12.340;2023-03-01T14:13:09;16.87;;;10.57;;
38037;SDS011;23843;51.320;12.340;2023-03-01T14:15:59;23.53;;;13.13;;
38037;SDS011;23843;51.320;12.340;2023-03-01T14:19:18;18.73;;;10.97;;
38037;SDS011;23843;51.320;12.340;2023-03-01T14:21:53;15.10;;;9.30;;
38037;SDS011;23843;51.320;12.340;2023-03-01T14:25:00;17.93;;;10.77;;
38037;SDS011;23843;51.320;12.340;2023-03-01T14:28:23;13.77;;;8.83;;
38037;SDS011;23843;51.320;12.340;2023-03-01T14:34:53;14.77;;;9.30;;
38037;SDS011;23843;51.320;12.340;2023-03-01T15:03:06;13.07;;;6.97;;
38037;SDS011;23843;51.320;12.340;2023-03-01T15:05:36;12.23;;;7.50;;
38037;SDS011;23843;51.320;12.340;2023-03-01T15:08:02;11.40;;;6.47;;
38037;SDS011;23843;51.320;12.340;2023-03-01T15:10:31;12.57;;;7.50;;
38037;SDS011;23843;51.320;12.340;2023-03-01T15:13:10;16.93;;;10.37;;
38037;SDS011;23843;51.320;12.340;2023-03-01T15:15:37;16.77;;;9.77;;
38037;SDS011;23843;51.320;12.340;2023-03-01T15:18:25;15.07;;;8.37;;
38037;SDS011;23843;51.320;12.340;2023-03-01T15:21:32;10.80;;;6.13;;
38037;SDS011;23843;51.320;12.340;2023-03-01T15:24:26;10.97;;;6.90;;
38037;SDS011;23843;51.320;12.340;2023-03-01T15:27:00;14.13;;;7.67;;
38037;SDS011;23843;51.320;12.340;2023-03-01T15:32:35;11.73;;;7.40;;
38037;SDS011;23843;51.320;12.340;2023-03-01T15:35:43;12.70;;;7.47;;
38037;SDS011;23843;51.320;12.340;2023-03-01T15:41:02;12.30;;;8.13;;
38037;SDS011;23843;51.320;12.340;2023-03-01T15:43:37;15.93;;;8.43;;
38037;SDS011;23843;51.320;12.340;2023-03-01T15:46:05;12.73;;;7.20;;
38037;SDS011;23843;51.320;12.340;2023-03-01T15:48:38;14.33;;;8.30;;
38037;SDS011;23843;51.320;12.340;2023-03-01T15:51:10;13.30;;;8.20;;
38037;SDS011;23843;51.320;12.340;2023-03-01T15:53:39;9.87;;;6.33;;
38037;SDS011;23843;51.320;12.340;2023-03-01T15:56:04;12.83;;;6.90;;
38037;SDS011;23843;51.320;12.340;2023-03-01T15:58:31;11.33;;;6.40;;
38037;SDS011;23843;51.320;12.340;2023-03-01T16:00:56;9.73;;;6.43;;
38037;SDS011;23843;51.320;12.340;2023-03-01T16:03:22;12.80;;;7.00;;
38037;SDS011;23843;51.320;12.340;2023-03-01T16:05:48;10.00;;;6.03;;
38037;SDS011;23843;51.320;12.340;2023-03-01T16:08:19;8.60;;;4.87;;
38037;SDS011;23843;51.320;12.340;2023-03-01T16:10:58;9.80;;;5.43;;
38037;SDS011;23843;51.320;12.340;2023-03-01T16:14:11;10.10;;;6.33;;
38037;SDS011;23843;51.320;12.340;2023-03-01T16:16:31;11.87;;;6.70;;
38037;SDS011;23843;51.320;12.340;2023-03-01T16:19:32;11.10;;;7.10;;
38037;SDS011;23843;51.320;12.340;2023-03-01T16:22:23;10.53;;;6.60;;
38037;SDS011;23843;51.320;12.340;2023-03-01T16:34:33;12.13;;;7.10;;
38037;SDS011;23843;51.320;12.340;2023-03-01T16:37:37;11.63;;;7.43;;
38037;SDS011;23843;51.320;12.340;2023-03-01T16:40:16;13.47;;;6.50;;
38037;SDS011;23843;51.320;12.340;2023-03-01T16:43:42;9.80;;;6.50;;
38037;SDS011;23843;51.320;12.340;2023-03-01T16:46:46;10.77;;;7.00;;
38037;SDS011;23843;51.320;12.340;2023-03-01T16:50:32;8.33;;;5.27;;
38037;SDS011;23843;51.320;12.340;2023-03-01T16:53:23;11.83;;;7.00;;
38037;SDS011;23843;51.320;12.340;2023-03-01T17:00:00;9.77;;;6.47;;
38037;SDS011;23843;51.320;12.340;2023-03-01T17:08:48;9.63;;;5.40;;
38037;SDS011;23843;51.320;12.340;2023-03-01T17:12:34;10.07;;;6.40;;
38037;SDS011;23843;51.320;12.340;2023-03-01T17:17:40;8.97;;;5.60;;
38037;SDS011;23843;51.320;12.340;2023-03-01T17:23:28;9.37;;;5.50;;
38037;SDS011;23843;51.320;12.340;2023-03-01T17:29:38;13.03;;;6.33;;
38037;SDS011;23843;51.320;12.340;2023-03-01T17:35:24;10.40;;;6.07;;
38037;SDS011;23843;51.320;12.340;2023-03-01T17:38:00;15.43;;;6.70;;
38037;SDS011;23843;51.320;12.340;2023-03-01T17:40:25;12.30;;;6.37;;
38037;SDS011;23843;51.320;12.340;2023-03-01T17:42:51;12.50;;;7.40;;
38037;SDS011;23843;51.320;12.340;2023-03-01T17:45:18;11.70;;;6.87;;
38037;SDS011;23843;51.320;12.340;2023-03-01T17:47:46;13.77;;;7.40;;
38037;SDS011;23843;51.320;12.340;2023-03-01T17:50:11;13.47;;;7.67;;
38037;SDS011;23843;51.320;12.340;2023-03-01T17:52:38;11.63;;;6.80;;
38037;SDS011;23843;51.320;12.340;2023-03-01T17:55:03;10.87;;;6.43;;
38037;SDS011;23843;51.320;12.340;2023-03-01T17:57:30;12.17;;;5.60;;
38037;SDS011;23843;51.320;12.340;2023-03-01T17:59:55;9.00;;;5.70;;
38037;SDS011;23843;51.320;12.340;2023-03-01T18:02:23;12.40;;;6.43;;
38037;SDS011;23843;51.320;12.340;2023-03-01T18:04:49;8.30;;;4.50;;
38037;SDS011;23843;51.320;12.340;2023-03-01T18:07:15;6.30;;;3.13;;
38037;SDS011;23843;51.320;12.340;2023-03-01T18:09:41;4.70;;;3.17;;
38037;SDS011;23843;51.320;12.340;2023-03-01T18:12:06;11.50;;;6.03;;
38037;SDS011;23843;51.320;12.340;2023-03-01T18:14:32;9.87;;;5.50;;
38037;SDS011;23843;51.320;12.340;2023-03-01T18:16:58;7.73;;;4.97;;
38037;SDS011;23843;51.320;12.340;2023-03-01T18:19:25;9.37;;;5.30;;
38037;SDS011;23843;51.320;12.340;2023-03-01T18:21:52;8.77;;;4.73;;
38037;SDS011;23843;51.320;12.340;2023-03-01T18:24:18;5.57;;;3.67;;
38037;SDS011;23843;51.320;12.340;2023-03-01T18:26:43;6.73;;;4.00;;
38037;SDS011;23843;51.320;12.340;2023-03-01T18:29:10;6.93;;;4.50;;
38037;SDS011;23843;51.320;12.340;2023-03-01T18:31:36;9.40;;;5.67;;
38037;SDS011;23843;51.320;12.340;2023-03-01T18:34:03;9.23;;;4.90;;
38037;SDS011;23843;51.320;12.340;2023-03-01T18:36:32;7.77;;;4.97;;
38037;SDS011;23843;51.320;12.340;2023-03-01T18:38:59;8.37;;;4.57;;
38037;SDS011;23843;51.320;12.340;2023-03-01T18:41:27;7.07;;;4.67;;
38037;SDS011;23843;51.320;12.340;2023-03-01T18:43:54;10.50;;;5.67;;
38037;SDS011;23843;51.320;12.340;2023-03-01T18:46:20;9.57;;;5.73;;
38037;SDS011;23843;51.320;12.340;2023-03-01T18:48:50;8.87;;;4.70;;
38037;SDS011;23843;51.320;12.340;2023-03-01T18:51:17;11.53;;;6.27;;
38037;SDS011;23843;51.320;12.340;2023-03-01T18:53:46;7.90;;;4.93;;
38037;SDS011;23843;51.320;12.340;2023-03-01T18:56:13;7.10;;;4.43;;
38037;SDS011;23843;51.320;12.340;2023-03-01T18:58:40;8.37;;;4.80;;
38037;SDS011;23843;51.320;12.340;2023-03-01T19:01:10;9.90;;;5.60;;
38037;SDS011;23843;51.320;12.340;2023-03-01T19:03:37;12.43;;;7.00;;
38037;SDS011;23843;51.320;12.340;2023-03-01T19:06:03;10.83;;;6.50;;
38037;SDS011;23843;51.320;12.340;2023-03-01T19:08:30;9.97;;;6.03;;
38037;SDS011;23843;51.320;12.340;2023-03-01T19:11:01;7.00;;;4.60;;
38037;SDS011;23843;51.320;12.340;2023-03-01T19:13:30;8.93;;;5.07;;
38037;SDS011;23843;51.320;12.340;2023-03-01T19:16:00;8.73;;;5.70;;
38037;SDS011;23843;51.320;12.340;2023-03-01T19:18:27;12.07;;;7.13;;
38037;SDS011;23843;51.320;12.340;2023-03-01T19:20:55;10.00;;;6.00;;
38037;SDS011;23843;51.320;12.340;2023-03-01T19:23:23;8.67;;;5.57;;
38037;SDS011;23843;51.320;12.340;2023-03-01T19:25:57;12.27;;;6.77;;
38037;SDS011;23843;51.320;12.340;2023-03-01T19:28:25;11.33;;;6.13;;
38037;SDS011;23843;51.320;12.340;2023-03-01T19:30:56;12.10;;;6.50;;
38037;SDS011;23843;51.320;12.340;2023-03-01T19:33:23;13.13;;;7.97;;
38037;SDS011;23843;51.320;12.340;2023-03-01T19:35:48;13.63;;;7.33;;
38037;SDS011;23843;51.320;12.340;2023-03-01T19:38:14;12.57;;;7.50;;
38037;SDS011;23843;51.320;12.340;2023-03-01T19:40:39;12.93;;;7.27;;
38037;SDS011;23843;51.320;12.340;2023-03-01T19:43:05;10.67;;;6.37;;
38037;SDS011;23843;51.320;12.340;2023-03-01T19:45:33;11.70;;;6.17;;
38037;SDS011;23843;51.320;12.340;2023-03-01T19:47:59;14.40;;;6.77;;
38037;SDS011;23843;51.320;12.340;2023-03-01T19:50:31;11.80;;;6.27;;
38037;SDS011;23843;51.320;12.340;2023-03-01T19:52:58;13.37;;;7.67;;
38037;SDS011;23843;51.320;12.340;2023-03-01T19:55:24;12.33;;;7.10;;
38037;SDS011;23843;51.320;12.340;2023-03-01T19:57:50;12.97;;;7.27;;
38037;SDS011;23843;51.320;12.340;2023-03-01T20:00:17;10.73;;;5.93;;
38037;SDS011;23843;51.320;12.340;2023-03-01T20:02:44;11.33;;;7.03;;
38037;SDS011;23843;51.320;12.340;2023-03-01T20:05:10;11.00;;;6.43;;
38037;SDS011;23843;51.320;12.340;2023-03-01T20:07:36;9.00;;;5.77;;
38037;SDS011;23843;51.320;12.340;2023-03-01T20:10:02;10.77;;;5.63;;
38037;SDS011;23843;51.320;12.340;2023-03-01T20:12:29;10.17;;;6.13;;
38037;SDS011;23843;51.320;12.340;2023-03-01T20:14:55;8.97;;;5.70;;
38037;SDS011;23843;51.320;12.340;2023-03-01T20:17:21;8.40;;;5.27;;
38037;SDS011;23843;51.320;12.340;2023-03-01T20:19:49;9.70;;;5.63;;
38037;SDS011;23843;51.320;12.340;2023-03-01T20:22:15;9.63;;;5.20;;
38037;SDS011;23843;51.320;12.340;2023-03-01T20:24:41;9.13;;;5.80;;
38037;SDS011;23843;51.320;12.340;2023-03-01T20:27:07;10.60;;;5.97;;
38037;SDS011;23843;51.320;12.340;2023-03-01T20:29:33;14.93;;;8.03;;
38037;SDS011;23843;51.320;12.340;2023-03-01T20:31:59;11.23;;;6.67;;
38037;SDS011;23843;51.320;12.340;2023-03-01T20:34:24;9.60;;;5.20;;
38037;SDS011;23843;51.320;12.340;2023-03-01T20:36:51;10.87;;;6.20;;
38037;SDS011;23843;51.320;12.340;2023-03-01T20:39:18;11.97;;;6.83;;
38037;SDS011;23843;51.320;12.340;2023-03-01T20:41:44;11.33;;;6.33;;
38037;SDS011;23843;51.320;12.340;2023-03-01T20:44:11;13.57;;;7.80;;
38037;SDS011;23843;51.320;12.340;2023-03-01T20:46:37;10.50;;;6.10;;
38037;SDS011;23843;51.320;12.340;2023-03-01T20:49:03;8.53;;;5.23;;
38037;SDS011;23843;51.320;12.340;2023-03-01T20:51:30;8.83;;;4.80;;
38037;SDS011;23843;51.320;12.340;2023-03-01T20:53:57;9.00;;;5.10;;
38037;SDS011;23843;51.320;12.340;2023-03-01T20:56:23;11.47;;;6.20;;
38037;SDS011;23843;51.320;12.340;2023-03-01T20:58:49;9.10;;;5.37;;
38037;SDS011;23843;51.320;12.340;2023-03-01T21:01:16;9.90;;;5.50;;
38037;SDS011;23843;51.320;12.340;2023-03-01T21:03:44;8.63;;;4.83;;
38037;SDS011;23843;51.320;12.340;2023-03-01T21:06:10;7.43;;;4.30;;
38037;SDS011;23843;51.320;12.340;2023-03-01T21:08:36;8.70;;;4.67;;
38037;SDS011;23843;51.320;12.340;2023-03-01T21:11:03;7.53;;;4.13;;
38037;SDS011;23843;51.320;12.340;2023-03-01T21:13:30;8.87;;;4.90;;
38037;SDS011;23843;51.320;12.340;2023-03-01T21:15:57;9.60;;;4.97;;
38037;SDS011;23843;51.320;12.340;2023-03-01T21:18:25;8.57;;;4.93;;
38037;SDS011;23843;51.320;12.340;2023-03-01T21:20:51;7.07;;;4.40;;
38037;SDS011;23843;51.320;12.340;2023-03-01T21:23:17;8.83;;;5.50;;
38037;SDS011;23843;51.320;12.340;2023-03-01T21:25:43;9.03;;;4.87;;
38037;SDS011;23843;51.320;12.340;2023-03-01T21:28:11;8.27;;;4.13;;
38037;SDS011;23843;51.320;12.340;2023-03-01T21:30:37;5.63;;;3.60;;
38037;SDS011;23843;51.320;12.340;2023-03-01T21:33:02;7.83;;;4.50;;
38037;SDS011;23843;51.320;12.340;2023-03-01T21:35:29;5.63;;;3.57;;
38037;SDS011;23843;51.320;12.340;2023-03-01T21:37:54;4.73;;;2.90;;